Accueil
METAR-TAF:

METAR-TAF

Aéroports :

Glendale, Arizona, États-Unis

latitude: 33-32N, longitude: 112-23W, altitude: 332 m

Observation

Le bulletin a été fait il y a 27 minutes, à 08:58 UTC
Vent 6 kt de ouest/nord-ouest
Température 31°C
Humidité 21%
Pression 1009 hPa
Visibilité: 16.1 km
Ciel clair

METAR: KLUF 300858Z AUTO 30006KT 10SM CLR 31/06 A2979 RMK AO2 SLP071 T03060058 57004

Heure: 02:25 (09:25 UTC)

Prévision

Le bulletin a été fait il y a 13 heures et 25 minutes, à 20:00 UTC
Prévision valable du 29 à 20 UTC au 31 à 02 UTC
Vent 6 kt de direction variable
Visibilité 10 km ou plus
Ciel clair
Evoluant progressivement
du 30 à 19 UTC au 30 à 20 UTC
Vent 12 kt de sud-ouest
Visibilité: 0112 m
Ciel clair

TAF: KLUF 292000Z 2920/3102 VRB06KT 9999 SKC QNH2975INS BECMG 3019/3020 22012KT 9999 SKC QNH2969INS TX44/2923Z TN25/3012Z LAST NO AMDS AFT 3000 NEXT 0112

Observations et prévisions météorologiques de plus de 4000 aéroports (messages METAR et TAF).

Les stations disponibles sont représentées par des disques jaunes et rouges sur la carte.

Passer la souris dessus pour voir le nom de la station.

Cliquer dessus pour voir les observations et prévisions météorologiques.

Pour changer de carte: cliquez sur les boutons verts avec une croix noire pour zoomer, sur le bouton vert avec un tiret pour effectuer un zoom arrière, ou sur les flèches vertes pour les cartes adjacentes.


METAR-TAF: